Terminal Aerodrome Forecast
Issued by NWS Mt. Holly, NJ

Home | Current Version | Previous Version | Text Only | Print | Product List | Glossary On
Versions: 1 2 3 4 5 6 7 8 9 10 11 12 13 14
000
FTUS41 KPHI 060121 AAA
TAFRDG
TAF AMD
KRDG 060121Z 0601/0624 VRB03KT P6SM SCT050 BKN100
      TEMPO 0602/0606 -SHRA OVC050
     FM060800 VRB03KT P6SM SCT025 BKN050
     FM061300 04006KT P6SM SCT025 BKN050
     FM061600 07006KT P6SM BKN050=

USA.gov is the U.S. government's official web portal to all federal, state and local government web resources and services.